createdAt,value
2019-06-15T00:02:05.551Z,63804.16
2019-06-15T00:04:33.520Z,63808.98
2019-06-15T00:06:59.766Z,63808.11
2019-06-15T00:09:25.999Z,63806.03
2019-06-15T00:11:52.446Z,63812.51
2019-06-15T00:14:18.708Z,63814.14
2019-06-15T00:16:44.849Z,63814.36
2019-06-15T00:19:11.079Z,63814.14
2019-06-15T00:21:38.372Z,63812.83
2019-06-15T00:24:05.420Z,63815.02
2019-06-15T00:26:31.595Z,63810.20
2019-06-15T00:28:59.632Z,63814.70
2019-06-15T00:31:25.906Z,63812.39
2019-06-15T00:33:53.945Z,63817.45
2019-06-15T00:36:20.217Z,63817.02
2019-06-15T00:38:48.247Z,63820.19
2019-06-15T00:41:15.652Z,63816.13
2019-06-15T00:43:41.909Z,63819.66
2019-06-15T00:46:08.149Z,63815.92
2019-06-15T00:48:34.444Z,63818.34
2019-06-15T00:51:00.579Z,63814.81
2019-06-15T00:53:26.807Z,63815.57
2019-06-15T00:55:53.058Z,63814.26
2019-06-15T00:58:19.302Z,63815.71
2019-06-15T01:00:45.443Z,63817.45
2019-06-15T01:03:11.681Z,63820.19
2019-06-15T01:05:37.923Z,63821.85
2019-06-15T01:08:04.151Z,63820.53
2019-06-15T01:10:30.575Z,63817.90
2019-06-15T01:12:56.716Z,63822.29
2019-06-15T01:15:22.947Z,63822.61
2019-06-15T01:17:49.385Z,63817.35
2019-06-15T01:20:16.122Z,63819.10
2019-06-15T01:22:42.348Z,63815.80
2019-06-15T01:25:09.133Z,63812.62
2019-06-15T01:27:37.571Z,63816.34
2019-06-15T01:30:06.592Z,63818.97
2019-06-15T01:32:32.876Z,63814.14
2019-06-15T01:35:00.454Z,63813.17
2019-06-15T01:37:27.001Z,63819.31
2019-06-15T01:39:53.222Z,63812.85
2019-06-15T01:42:19.495Z,63822.95
2019-06-15T01:44:45.828Z,63824.59
2019-06-15T01:47:12.070Z,63824.59
2019-06-15T01:49:38.298Z,63821.96
2019-06-15T01:52:04.567Z,63820.74
2019-06-15T01:54:32.608Z,63818.11
2019-06-15T01:56:58.838Z,63819.31
2019-06-15T01:59:25.119Z,63816.89
2019-06-15T02:01:51.344Z,63815.57
2019-06-15T02:04:17.887Z,63810.75
2019-06-15T02:06:44.137Z,63815.02
2019-06-15T02:09:10.730Z,63816.57
2019-06-15T02:11:36.951Z,63813.38
2019-06-15T02:14:04.291Z,63812.28
2019-06-15T02:16:30.579Z,63811.73
2019-06-15T02:18:56.795Z,63809.09
2019-06-15T02:21:23.050Z,63813.93
2019-06-15T02:23:49.280Z,63812.83
2019-06-15T02:26:15.536Z,63813.59
2019-06-15T02:28:43.045Z,63815.67
2019-06-15T02:31:09.172Z,63810.64
2019-06-15T02:33:35.309Z,63813.82
2019-06-15T02:36:01.453Z,63813.04
2019-06-15T02:38:27.689Z,63810.96
2019-06-15T02:40:53.928Z,63813.93
2019-06-15T02:43:20.176Z,63818.44
2019-06-15T02:45:51.745Z,63817.02
2019-06-15T02:48:18.132Z,63819.21
2019-06-15T02:50:44.598Z,63822.51
2019-06-15T02:53:12.663Z,63826.91
2019-06-15T02:55:50.133Z,63830.21
2019-06-15T02:58:07.354Z,63838.43
2019-06-15T03:00:46.064Z,63835.93
2019-06-15T03:03:12.214Z,63834.39
2019-06-15T03:05:38.796Z,63839.65
2019-06-15T03:08:05.046Z,63836.60
2019-06-15T03:10:32.003Z,63843.63
2019-06-15T03:12:59.342Z,63845.06
2019-06-15T03:15:25.597Z,63844.72
2019-06-15T03:17:51.821Z,63845.83
2019-06-15T03:20:18.222Z,63846.93
2019-06-15T03:22:44.496Z,63848.57
2019-06-15T03:25:11.289Z,63847.46
2019-06-15T03:27:37.534Z,63848.25
2019-06-15T03:30:06.073Z,63845.71
2019-06-15T03:32:32.223Z,63843.84
2019-06-15T03:35:00.483Z,63837.47
2019-06-15T03:37:27.097Z,63844.95
2019-06-15T03:39:53.336Z,63843.96
2019-06-15T03:42:19.675Z,63842.32
2019-06-15T03:44:46.211Z,63845.16
2019-06-15T03:47:13.407Z,63845.27
2019-06-15T03:49:39.655Z,63846.49
2019-06-15T03:52:07.687Z,63849.02
2019-06-15T03:54:34.242Z,63850.00
2019-06-15T03:57:00.361Z,63853.18
2019-06-15T03:59:26.653Z,63851.45
2019-06-15T04:01:52.882Z,63856.94
2019-06-15T04:04:19.150Z,63862.00
2019-06-15T04:06:45.292Z,63864.64
2019-06-15T04:09:11.524Z,63873.32
2019-06-15T04:11:37.749Z,63875.53
2019-06-15T04:14:04.296Z,63878.60
2019-06-15T04:16:32.343Z,63877.84
2019-06-15T04:18:58.476Z,63880.81
2019-06-15T04:21:26.042Z,63883.56
2019-06-15T04:23:52.317Z,63887.62
2019-06-15T04:26:18.545Z,63889.39
2019-06-15T04:28:44.807Z,63900.18
2019-06-15T04:31:11.033Z,63899.73
2019-06-15T04:33:37.466Z,63899.73
2019-06-15T04:36:05.525Z,63905.23
2019-06-15T04:38:31.755Z,63907.44
2019-06-15T04:40:57.979Z,63905.68
2019-06-15T04:43:24.104Z,63909.31
2019-06-15T04:45:50.581Z,63909.86
2019-06-15T04:48:16.723Z,63906.33
2019-06-15T04:50:44.791Z,63906.68
2019-06-15T04:53:11.043Z,63910.95
2019-06-15T04:55:37.426Z,63913.30
2019-06-15T04:58:03.790Z,63918.57
2019-06-15T05:00:29.959Z,63921.77
2019-06-15T05:02:57.199Z,63924.41
2019-06-15T05:05:23.335Z,63930.03
2019-06-15T05:07:49.609Z,63932.01
2019-06-15T05:10:15.847Z,63938.82
2019-06-15T05:12:42.367Z,63940.70
2019-06-15T05:15:08.906Z,63946.63
2019-06-15T05:17:35.128Z,63944.11
2019-06-15T05:20:01.534Z,63952.58
2019-06-15T05:22:27.809Z,63954.56
2019-06-15T05:24:54.045Z,63962.50
2019-06-15T05:27:20.281Z,63969.98
2019-06-15T05:29:46.525Z,63976.03
2019-06-15T05:32:12.810Z,63983.85
2019-06-15T05:34:39.039Z,63982.11
2019-06-15T05:37:05.314Z,63984.30
2019-06-15T05:39:31.536Z,63995.75
2019-06-15T05:41:59.320Z,64006.54
2019-06-15T05:44:25.759Z,64020.33
2019-06-15T05:46:53.813Z,64033.09
2019-06-15T05:49:21.561Z,64051.95
2019-06-15T05:51:47.829Z,64074.77
2019-06-15T05:54:14.095Z,64117.88
2019-06-15T05:56:40.341Z,64165.52
2019-06-15T05:59:06.552Z,64199.73
2019-06-15T06:01:32.815Z,64253.17
2019-06-15T06:04:00.878Z,64295.59
2019-06-15T06:06:28.843Z,64296.02
2019-06-15T06:08:55.149Z,64331.14
2019-06-15T06:11:21.259Z,64458.27
2019-06-15T06:13:47.491Z,64575.90
2019-06-15T06:16:13.728Z,64684.36
2019-06-15T06:18:39.998Z,64759.98
2019-06-15T06:21:06.247Z,64788.59
2019-06-15T06:23:32.482Z,64834.30
2019-06-15T06:25:58.712Z,64842.50
2019-06-15T06:28:24.848Z,64821.21
2019-06-15T06:30:51.082Z,64752.22
2019-06-15T06:33:17.309Z,64701.89
2019-06-15T06:35:43.551Z,64651.46
2019-06-15T06:38:09.775Z,64628.43
2019-06-15T06:40:36.024Z,64630.29
2019-06-15T06:43:02.280Z,64607.71
2019-06-15T06:45:28.539Z,64643.38
2019-06-15T06:47:54.768Z,64645.13
2019-06-15T06:50:22.738Z,64637.83
2019-06-15T06:52:48.982Z,64623.09
2019-06-15T06:55:15.331Z,64611.25
2019-06-15T06:57:51.690Z,64617.67
2019-06-15T07:00:09.905Z,64629.86
2019-06-15T07:02:36.054Z,64632.07
2019-06-15T07:05:04.990Z,64612.92
2019-06-15T07:07:31.227Z,64608.94
2019-06-15T07:09:57.460Z,64610.25
2019-06-15T07:12:23.696Z,64597.49
2019-06-15T07:14:49.950Z,64606.16
2019-06-15T07:17:16.089Z,64615.90
2019-06-15T07:19:42.215Z,64630.41
2019-06-15T07:22:08.462Z,64665.08
2019-06-15T07:24:34.728Z,64660.86
2019-06-15T07:27:00.980Z,64680.81
2019-06-15T07:29:27.107Z,64672.18
2019-06-15T07:31:53.351Z,64705.33
2019-06-15T07:34:19.481Z,64751.10
2019-06-15T07:36:45.617Z,64757.99
2019-06-15T07:39:11.851Z,64814.90
2019-06-15T07:41:38.094Z,64827.98
2019-06-15T07:44:04.353Z,64842.96
2019-06-15T07:46:30.607Z,64836.63
2019-06-15T07:48:56.736Z,64824.97
2019-06-15T07:51:22.999Z,64812.13
2019-06-15T07:53:49.287Z,64811.67
2019-06-15T07:56:15.529Z,64825.87
2019-06-15T07:58:41.797Z,64828.54
2019-06-15T08:01:08.025Z,64858.82
2019-06-15T08:03:34.254Z,64883.16
2019-06-15T08:06:00.495Z,64931.77
2019-06-15T08:08:26.760Z,64927.34
2019-06-15T08:10:53.001Z,64932.32
2019-06-15T08:13:19.138Z,64940.87
2019-06-15T08:15:45.282Z,64951.98
2019-06-15T08:18:11.517Z,64953.66
2019-06-15T08:20:37.755Z,64937.42
2019-06-15T08:23:03.985Z,64978.98
2019-06-15T08:25:30.215Z,65004.41
2019-06-15T08:27:56.344Z,65029.44
2019-06-15T08:30:29.205Z,65105.59
2019-06-15T08:32:55.475Z,65130.97
2019-06-15T08:35:21.703Z,65142.74
2019-06-15T08:37:47.924Z,65142.56
2019-06-15T08:40:14.272Z,65137.88
2019-06-15T08:42:40.400Z,65125.29
2019-06-15T08:45:07.448Z,65119.83
2019-06-15T08:47:33.675Z,65113.34
2019-06-15T08:49:59.809Z,65106.25
2019-06-15T08:52:25.989Z,65128.20
2019-06-15T08:54:52.111Z,65182.14
2019-06-15T08:57:18.362Z,65187.47
2019-06-15T08:59:44.593Z,65174.03
2019-06-15T09:02:10.727Z,65183.57
2019-06-15T09:04:37.339Z,65186.91
2019-06-15T09:07:03.624Z,65228.02
2019-06-15T09:09:29.869Z,65310.19
2019-06-15T09:11:55.995Z,65354.13
2019-06-15T09:14:22.233Z,65375.06
2019-06-15T09:16:48.469Z,65395.58
2019-06-15T09:19:14.706Z,65379.28
2019-06-15T09:21:40.948Z,65371.81
2019-06-15T09:24:09.682Z,65432.95
2019-06-15T09:26:35.834Z,65465.84
2019-06-15T09:29:10.805Z,65496.29
2019-06-15T09:31:30.224Z,65536.22
2019-06-15T09:33:56.476Z,65526.64
2019-06-15T09:36:22.678Z,65506.32
2019-06-15T09:38:48.937Z,65514.13
2019-06-15T09:41:15.167Z,65544.34
2019-06-15T09:43:41.407Z,65550.72
2019-06-15T09:46:07.644Z,65521.38
2019-06-15T09:48:33.900Z,65497.81
2019-06-15T09:51:00.161Z,65509.67
2019-06-15T09:53:26.397Z,65544.82
2019-06-15T09:55:52.542Z,65557.08
2019-06-15T09:58:18.781Z,65542.35
2019-06-15T10:00:45.032Z,65552.86
2019-06-15T10:03:11.257Z,65559.33
2019-06-15T10:05:37.513Z,65553.17
2019-06-15T10:08:03.650Z,65583.56
2019-06-15T10:10:29.997Z,65612.35
2019-06-15T10:12:56.283Z,65609.23
2019-06-15T10:15:22.611Z,65641.96
2019-06-15T10:17:48.830Z,65612.60
2019-06-15T10:20:16.199Z,65631.35
2019-06-15T10:22:42.411Z,65588.11
2019-06-15T10:25:08.656Z,65607.34
2019-06-15T10:27:35.016Z,65631.02
2019-06-15T10:30:03.091Z,65651.36
2019-06-15T10:32:30.720Z,65638.38
2019-06-15T10:34:56.953Z,65646.66
2019-06-15T10:37:23.193Z,65637.03
2019-06-15T10:39:49.446Z,65683.28
2019-06-15T10:42:15.581Z,65659.27
2019-06-15T10:44:41.824Z,65660.95
2019-06-15T10:47:08.172Z,65660.16
2019-06-15T10:49:34.427Z,65647.78
2019-06-15T10:52:00.669Z,65660.86
2019-06-15T10:54:26.922Z,65661.82
2019-06-15T10:56:53.190Z,65670.34
2019-06-15T10:59:19.431Z,65667.41
2019-06-15T11:01:45.693Z,65710.91
2019-06-15T11:04:11.913Z,65681.52
2019-06-15T11:06:38.058Z,65701.41
2019-06-15T11:09:06.643Z,65707.88
2019-06-15T11:11:32.789Z,65622.50
2019-06-15T11:13:59.055Z,65633.35
2019-06-15T11:16:25.284Z,65677.69
2019-06-15T11:18:51.434Z,65686.30
2019-06-15T11:21:17.680Z,65704.75
2019-06-15T11:23:43.957Z,65714.34
2019-06-15T11:26:10.176Z,65719.53
2019-06-15T11:28:36.424Z,65639.03
2019-06-15T11:31:02.699Z,65605.09
2019-06-15T11:33:28.929Z,65604.30
2019-06-15T11:35:55.177Z,65566.27
2019-06-15T11:38:21.416Z,65584.45
2019-06-15T11:40:47.644Z,65559.55
2019-06-15T11:43:13.882Z,65588.81
2019-06-15T11:45:40.125Z,65600.17
2019-06-15T11:48:06.368Z,65616.59
2019-06-15T11:50:32.628Z,65632.94
2019-06-15T11:52:58.863Z,65642.75
2019-06-15T11:55:38.701Z,65643.31
2019-06-15T11:57:53.314Z,65660.08
2019-06-15T12:00:31.370Z,65648.09
2019-06-15T12:02:51.288Z,65655.54
2019-06-15T12:05:17.548Z,65669.55
2019-06-15T12:07:43.674Z,65674.11
2019-06-15T12:10:09.822Z,65668.54
2019-06-15T12:12:36.024Z,65604.78
2019-06-15T12:15:04.075Z,65645.95
2019-06-15T12:17:32.149Z,65602.64
2019-06-15T12:19:58.291Z,65627.66
2019-06-15T12:22:24.456Z,65617.16
2019-06-15T12:24:51.693Z,65547.61
2019-06-15T12:27:17.818Z,65549.38
2019-06-15T12:29:44.080Z,65554.63
2019-06-15T12:32:10.306Z,65538.78
2019-06-15T12:34:36.535Z,65497.08
2019-06-15T12:37:03.179Z,65473.40
2019-06-15T12:39:29.285Z,65506.01
2019-06-15T12:41:57.361Z,65515.25
2019-06-15T12:44:25.419Z,65478.43
2019-06-15T12:46:51.663Z,65454.21
2019-06-15T12:49:17.924Z,65446.74
2019-06-15T12:51:44.174Z,65451.99
2019-06-15T12:54:10.414Z,65448.54
2019-06-15T12:56:36.651Z,65464.66
2019-06-15T12:59:02.897Z,65484.55
2019-06-15T13:01:29.138Z,65465.03
2019-06-15T13:03:55.376Z,65463.93
2019-06-15T13:06:21.506Z,65466.63
2019-06-15T13:08:47.753Z,65455.00
2019-06-15T13:11:14.004Z,65443.06
2019-06-15T13:13:40.142Z,65437.03
2019-06-15T13:16:06.278Z,65443.54
2019-06-15T13:18:32.499Z,65453.57
2019-06-15T13:20:58.651Z,65459.10
2019-06-15T13:23:24.875Z,65455.56
2019-06-15T13:25:51.181Z,65404.04
2019-06-15T13:28:17.385Z,65363.03
2019-06-15T13:30:47.008Z,65354.91
2019-06-15T13:33:13.252Z,65379.50
2019-06-15T13:35:42.025Z,65400.36
2019-06-15T13:38:08.276Z,65397.58
2019-06-15T13:40:34.549Z,65393.90
2019-06-15T13:43:00.671Z,65406.17
2019-06-15T13:45:26.820Z,65396.68
2019-06-15T13:47:53.065Z,65359.93
2019-06-15T13:50:19.222Z,65343.84
2019-06-15T13:52:45.458Z,65341.37
2019-06-15T13:55:12.508Z,65323.69
2019-06-15T13:57:38.636Z,65334.60
2019-06-15T14:00:05.960Z,65312.23
2019-06-15T14:02:32.211Z,65293.25
2019-06-15T14:04:58.428Z,65289.04
2019-06-15T14:07:24.669Z,65271.43
2019-06-15T14:09:50.917Z,65264.75
2019-06-15T14:12:17.061Z,65270.00
2019-06-15T14:14:43.301Z,65279.80
2019-06-15T14:17:09.550Z,65272.77
2019-06-15T14:19:35.683Z,65266.66
2019-06-15T14:22:01.839Z,65274.99
2019-06-15T14:24:28.572Z,65252.27
2019-06-15T14:26:54.697Z,65271.90
2019-06-15T14:29:20.942Z,65254.18
2019-06-15T14:31:50.471Z,65257.74
2019-06-15T14:34:15.317Z,65243.83
2019-06-15T14:36:41.462Z,65236.68
2019-06-15T14:39:07.740Z,65209.43
2019-06-15T14:41:33.868Z,65193.27
2019-06-15T14:44:00.019Z,65179.58
2019-06-15T14:46:26.354Z,65163.69
2019-06-15T14:48:52.593Z,65134.53
2019-06-15T14:51:18.858Z,65117.74
2019-06-15T14:53:49.843Z,65078.46
2019-06-15T14:56:16.042Z,65076.69
2019-06-15T14:58:42.044Z,65057.48
2019-06-15T15:01:08.302Z,65040.79
2019-06-15T15:03:37.439Z,65025.79
2019-06-15T15:06:02.674Z,64996.00
2019-06-15T15:08:28.920Z,64970.55
2019-06-15T15:10:56.294Z,64960.32
2019-06-15T15:13:22.690Z,64957.30
2019-06-15T15:15:53.130Z,64942.87
2019-06-15T15:18:19.609Z,64922.00
2019-06-15T15:20:45.809Z,64898.14
2019-06-15T15:23:12.056Z,64871.60
2019-06-15T15:25:38.311Z,64844.52
2019-06-15T15:28:07.181Z,64828.98
2019-06-15T15:30:38.482Z,64819.88
2019-06-15T15:33:06.789Z,64810.12
2019-06-15T15:35:32.960Z,64798.25
2019-06-15T15:37:59.194Z,64793.27
2019-06-15T15:40:27.455Z,64791.26
2019-06-15T15:42:56.109Z,64780.27
2019-06-15T15:45:21.749Z,64762.84
2019-06-15T15:47:47.968Z,64750.45
2019-06-15T15:50:17.490Z,64735.60
2019-06-15T15:52:42.463Z,64722.94
2019-06-15T15:55:08.698Z,64713.75
2019-06-15T15:57:36.334Z,64699.90
2019-06-15T16:00:07.377Z,64688.02
2019-06-15T16:02:45.420Z,64683.70
2019-06-15T16:05:01.672Z,64671.29
2019-06-15T16:07:28.087Z,64663.96
2019-06-15T16:09:54.342Z,64667.09
2019-06-15T16:12:20.595Z,64661.10
2019-06-15T16:14:46.843Z,64657.44
2019-06-15T16:17:13.079Z,64650.02
2019-06-15T16:19:39.329Z,64647.14
2019-06-15T16:22:05.561Z,64634.73
2019-06-15T16:24:31.822Z,64632.96
2019-06-15T16:26:58.050Z,64630.75
2019-06-15T16:29:24.276Z,64619.00
2019-06-15T16:31:50.531Z,64615.90
2019-06-15T16:34:16.790Z,64611.48
2019-06-15T16:36:43.040Z,64604.27
2019-06-15T16:39:09.279Z,64592.42
2019-06-15T16:41:36.437Z,64582.68
2019-06-15T16:44:02.779Z,64577.13
2019-06-15T16:46:29.021Z,64573.81
2019-06-15T16:48:55.968Z,64573.59
2019-06-15T16:51:22.420Z,64573.81
2019-06-15T16:53:48.665Z,64571.15
2019-06-15T16:56:16.624Z,64572.94
2019-06-15T16:58:43.067Z,64562.84
2019-06-15T17:01:09.313Z,64565.18
2019-06-15T17:03:36.675Z,64567.95
2019-06-15T17:06:06.887Z,64565.18
2019-06-15T17:08:32.037Z,64549.23
2019-06-15T17:10:58.277Z,64547.48
2019-06-15T17:13:26.055Z,64545.71
2019-06-15T17:15:52.476Z,64534.31
2019-06-15T17:18:18.705Z,64533.62
2019-06-15T17:20:51.772Z,64528.98
2019-06-15T17:23:18.124Z,64523.56
2019-06-15T17:25:44.257Z,64524.57
2019-06-15T17:28:10.504Z,64520.46
2019-06-15T17:30:37.088Z,64510.72
2019-06-15T17:33:05.211Z,64501.86
2019-06-15T17:35:31.570Z,64494.67
2019-06-15T17:37:57.830Z,64485.49
2019-06-15T17:40:24.067Z,64482.39
2019-06-15T17:42:50.369Z,64469.79
2019-06-15T17:45:16.644Z,64464.03
2019-06-15T17:47:42.864Z,64460.61
2019-06-15T17:50:09.409Z,64450.53
2019-06-15T17:52:36.098Z,64448.65
2019-06-15T17:55:06.979Z,64440.24
2019-06-15T17:57:32.935Z,64431.07
2019-06-15T17:59:59.158Z,64421.57
2019-06-15T18:02:26.266Z,64407.41
2019-06-15T18:04:52.541Z,64399.76
2019-06-15T18:07:18.809Z,64393.69
2019-06-15T18:09:46.586Z,64389.92
2019-06-15T18:12:13.088Z,64382.98
2019-06-15T18:14:39.351Z,64377.78
2019-06-15T18:17:07.222Z,64375.45
2019-06-15T18:19:33.724Z,64369.14
2019-06-15T18:21:59.976Z,64357.66
2019-06-15T18:24:26.697Z,64352.79
2019-06-15T18:26:53.057Z,64343.30
2019-06-15T18:29:19.203Z,64337.77
2019-06-15T18:31:45.459Z,64332.25
2019-06-15T18:34:13.267Z,64328.49
2019-06-15T18:36:39.825Z,64321.65
2019-06-15T18:39:06.281Z,64318.77
2019-06-15T18:41:32.583Z,64313.92
2019-06-15T18:43:58.820Z,64306.61
2019-06-15T18:46:27.314Z,64296.57
2019-06-15T18:48:53.538Z,64294.03
2019-06-15T18:51:19.797Z,64286.27
2019-06-15T18:53:46.552Z,64278.01
2019-06-15T18:56:12.999Z,64265.09
2019-06-15T18:58:39.269Z,64261.22
2019-06-15T19:01:06.920Z,64249.30
2019-06-15T19:03:33.580Z,64247.43
2019-06-15T19:05:59.829Z,64241.57
2019-06-15T19:08:26.191Z,64230.54
2019-06-15T19:10:52.460Z,64222.57
2019-06-15T19:13:18.691Z,64213.20
2019-06-15T19:15:46.424Z,64203.17
2019-06-15T19:18:13.274Z,64195.44
2019-06-15T19:20:39.562Z,64183.53
2019-06-15T19:23:06.826Z,64182.32
2019-06-15T19:25:36.130Z,64167.95
2019-06-15T19:28:01.733Z,64167.95
2019-06-15T19:30:27.941Z,64162.11
2019-06-15T19:32:56.524Z,64153.61
2019-06-15T19:35:22.337Z,64130.89
2019-06-15T19:37:48.591Z,64130.89
2019-06-15T19:40:16.179Z,64123.39
2019-06-15T19:42:42.579Z,64120.40
2019-06-15T19:45:10.671Z,64111.48
2019-06-15T19:47:37.927Z,64102.89
2019-06-15T19:50:06.548Z,64094.06
2019-06-15T19:52:35.920Z,64084.14
2019-06-15T19:55:01.892Z,64069.82
2019-06-15T19:57:28.200Z,64069.82
2019-06-15T19:59:56.169Z,64052.40
2019-06-15T20:02:22.595Z,64052.40
2019-06-15T20:05:00.349Z,64041.81
2019-06-15T20:07:17.144Z,64036.07
2019-06-15T20:09:43.382Z,64029.68
2019-06-15T20:12:18.288Z,64012.27
2019-06-15T20:14:37.768Z,63999.93
2019-06-15T20:17:04.017Z,63994.43
2019-06-15T20:19:30.278Z,63980.78
2019-06-15T20:21:56.944Z,63963.59
2019-06-15T20:24:27.003Z,63956.32
2019-06-15T20:26:52.710Z,63944.76
2019-06-15T20:29:18.954Z,63938.92
2019-06-15T20:31:46.277Z,63930.13
2019-06-15T20:34:12.703Z,63920.55
2019-06-15T20:36:38.955Z,63913.59
2019-06-15T20:39:08.103Z,63908.30
2019-06-15T20:41:36.401Z,63894.24
2019-06-15T20:44:03.071Z,63886.75
2019-06-15T20:46:29.224Z,63882.02
2019-06-15T20:48:56.499Z,63872.88
2019-06-15T20:51:22.900Z,63860.13
2019-06-15T20:53:49.140Z,63855.26
2019-06-15T20:56:17.090Z,63845.71
2019-06-15T20:58:43.313Z,63836.70
2019-06-15T21:01:09.437Z,63828.23
2019-06-15T21:03:36.656Z,63821.73
2019-06-15T21:06:03.213Z,63808.11
2019-06-15T21:08:29.450Z,63794.57
2019-06-15T21:10:56.372Z,63783.37
2019-06-15T21:13:22.799Z,63775.23
2019-06-15T21:15:49.044Z,63768.74
2019-06-15T21:18:15.190Z,63756.52
2019-06-15T21:20:41.433Z,63749.82
2019-06-15T21:23:07.559Z,63740.81
2019-06-15T21:25:33.806Z,63733.67
2019-06-15T21:28:00.050Z,63728.61
2019-06-15T21:30:27.068Z,63719.94
2019-06-15T21:32:55.839Z,63714.99
2019-06-15T21:35:21.608Z,63711.90
2019-06-15T21:37:47.854Z,63706.97
2019-06-15T21:40:15.999Z,63699.84
2019-06-15T21:42:42.430Z,63691.25
2019-06-15T21:45:08.763Z,63684.98
2019-06-15T21:47:37.205Z,63673.01
2019-06-15T21:50:06.475Z,63663.36
2019-06-15T21:52:32.702Z,63659.40
2019-06-15T21:54:58.942Z,63653.16
2019-06-15T21:57:26.859Z,63651.71
2019-06-15T21:59:53.307Z,63647.34
2019-06-15T22:02:19.564Z,63644.25
2019-06-15T22:04:46.182Z,63638.54
2019-06-15T22:07:12.411Z,63631.53
2019-06-15T22:09:38.647Z,63631.09
2019-06-15T22:12:06.839Z,63619.46
2019-06-15T22:14:33.032Z,63614.20
2019-06-15T22:16:59.767Z,63608.49
2019-06-15T22:19:26.284Z,63606.16
2019-06-15T22:21:52.698Z,63599.15
2019-06-15T22:24:18.947Z,63601.33
2019-06-15T22:26:46.738Z,63588.70
2019-06-15T22:29:13.219Z,63583.43
2019-06-15T22:31:39.447Z,63579.04
2019-06-15T22:34:06.580Z,63570.05
2019-06-15T22:36:32.934Z,63567.75
2019-06-15T22:38:59.178Z,63555.37
2019-06-15T22:41:25.310Z,63556.43
2019-06-15T22:43:51.553Z,63547.90
2019-06-15T22:46:17.787Z,63544.82
2019-06-15T22:48:46.806Z,63540.74
2019-06-15T22:51:12.580Z,63532.42
2019-06-15T22:53:38.795Z,63531.54
2019-06-15T22:56:06.625Z,63517.75
2019-06-15T22:58:33.121Z,63509.52
2019-06-15T23:00:59.244Z,63505.57
2019-06-15T23:03:26.202Z,63496.90
2019-06-15T23:05:52.532Z,63493.06
2019-06-15T23:08:18.756Z,63483.20
2019-06-15T23:10:46.891Z,63479.25
2019-06-15T23:13:13.121Z,63472.47
2019-06-15T23:15:39.245Z,63465.20
2019-06-15T23:18:06.722Z,63457.12
2019-06-15T23:20:33.148Z,63451.62
2019-06-15T23:22:59.384Z,63445.49
2019-06-15T23:25:27.472Z,63436.83
2019-06-15T23:27:56.206Z,63429.50
2019-06-15T23:30:21.834Z,63426.43
2019-06-15T23:32:48.063Z,63422.38
2019-06-15T23:35:16.648Z,63423.57
2019-06-15T23:37:42.650Z,63416.91
2019-06-15T23:40:23.244Z,63417.33
2019-06-15T23:42:49.682Z,63412.41
2019-06-15T23:45:16.914Z,63407.80
2019-06-15T23:47:43.146Z,63403.29
2019-06-15T23:50:09.583Z,63397.74
2019-06-15T23:52:36.292Z,63397.62
2019-06-15T23:55:04.748Z,63391.38
2019-06-15T23:57:30.994Z,63388.50
2019-06-15T23:59:57.120Z,63386.09
